Time;durP1;ratioP1;P1;durP2;ratioP2;P2;SDS_P1;SDS_P2;PMS_P1;PMS_P2;Temp;Humidity;BMP_temperature;BMP_pressure;BME280_temperature;BME280_humidity;BME280_pressure;Samples;Min_cycle;Max_cycle;Signal;HPM_P1;HPM_P2
2023/06/14 00:00:58;;;;;;;8.73;1.65;;;16.70;99.20;;;;;;5031720;28;20045;-80
2023/06/14 00:03:44;;;;;;;4.18;1.55;;;16.60;99.20;;;;;;4986667;28;20096;-84
2023/06/14 00:06:31;;;;;;;4.38;1.38;;;16.60;99.40;;;;;;5013826;28;20041;-83
2023/06/14 00:09:17;;;;;;;7.35;1.20;;;16.50;99.50;;;;;;5016573;28;20573;-85
2023/06/14 00:12:04;;;;;;;4.07;1.30;;;16.50;99.60;;;;;;5031613;28;20045;-81
2023/06/14 00:14:50;;;;;;;6.55;1.60;;;16.50;99.90;;;;;;5034769;28;20077;-79
2023/06/14 00:17:38;;;;;;;4.10;1.50;;;16.40;99.90;;;;;;5021880;28;20049;-80
2023/06/14 00:20:25;;;;;;;5.13;1.23;;;16.40;99.90;;;;;;5041909;28;20045;-82
2023/06/14 00:23:11;;;;;;;5.68;1.60;;;16.40;99.90;;;;;;5024997;28;20058;-81
2023/06/14 00:25:57;;;;;;;4.10;1.30;;;16.30;99.90;;;;;;5042698;28;20057;-80
2023/06/14 00:28:43;;;;;;;5.97;1.52;;;16.30;99.90;;;;;;5021219;28;20049;-81
2023/06/14 00:31:30;;;;;;;4.47;1.88;;;16.20;99.90;;;;;;5018367;28;20053;-80
2023/06/14 00:34:16;;;;;;;3.95;1.30;;;16.20;99.90;;;;;;5039250;28;20052;-89
2023/06/14 00:37:02;;;;;;;4.30;1.30;;;16.20;99.90;;;;;;5015524;28;20057;-86
2023/06/14 00:39:48;;;;;;;5.90;1.58;;;16.10;99.90;;;;;;5032746;28;20057;-80
2023/06/14 00:42:34;;;;;;;7.82;1.25;;;16.10;99.90;;;;;;5031156;28;20050;-84
2023/06/14 00:45:20;;;;;;;3.13;1.08;;;16.00;99.90;;;;;;5030977;28;20060;-88
2023/06/14 00:48:09;;;;;;;4.82;1.10;;;16.00;99.90;;;;;;5033852;28;20405;-91
2023/06/14 00:50:55;;;;;;;4.82;1.10;;;16.00;99.90;;;;;;5001165;28;20053;-89
2023/06/14 00:53:46;;;;;;;5.72;1.38;;;15.90;99.90;;;;;;5036983;28;20059;-82
2023/06/14 00:56:32;;;;;;;3.60;1.40;;;15.90;99.90;;;;;;5033145;28;20053;-83
2023/06/14 00:59:18;;;;;;;3.60;1.35;;;15.90;99.90;;;;;;5029897;28;20053;-80
2023/06/14 01:02:04;;;;;;;7.00;1.67;;;15.90;99.90;;;;;;5031042;28;20080;-80
2023/06/14 01:04:52;;;;;;;2.25;1.08;;;15.80;99.90;;;;;;5031026;28;20042;-91
2023/06/14 01:07:57;;;;;;;3.72;1.45;;;15.80;99.90;;;;;;5034442;28;20128;-85
2023/06/14 01:11:08;;;;;;;4.05;1.30;;;15.80;99.90;;;;;;5042804;28;20041;-82
2023/06/14 01:13:56;;;;;;;6.45;1.38;;;15.80;99.90;;;;;;5012404;28;20537;-88
2023/06/14 01:16:43;;;;;;;4.00;1.48;;;15.80;99.90;;;;;;5013905;28;20509;-91
2023/06/14 01:19:31;;;;;;;3.33;1.38;;;15.70;99.90;;;;;;5014497;28;20056;-85
2023/06/14 01:22:17;;;;;;;5.30;1.50;;;15.70;99.90;;;;;;5014637;28;20048;-86
2023/06/14 01:25:04;;;;;;;3.67;1.30;;;15.70;99.90;;;;;;5014730;28;20077;-86
2023/06/14 01:27:53;;;;;;;4.25;1.38;;;15.70;99.90;;;;;;5038022;28;20136;-90
2023/06/14 01:30:47;;;;;;;3.33;1.40;;;15.70;99.90;;;;;;5021939;28;20053;-90
2023/06/14 01:33:35;;;;;;;3.75;1.67;;;15.70;99.90;;;;;;5017163;28;20061;-84
2023/06/14 01:36:24;;;;;;;3.83;1.20;;;15.70;99.90;;;;;;5013629;28;20065;-85
2023/06/14 01:39:15;;;;;;;3.60;1.35;;;15.60;99.90;;;;;;5015064;28;20139;-82
2023/06/14 01:42:02;;;;;;;3.42;1.38;;;15.60;99.90;;;;;;5015626;28;20057;-81
2023/06/14 01:44:49;;;;;;;6.07;1.38;;;15.60;99.90;;;;;;5015986;28;20046;-81
2023/06/14 01:47:36;;;;;;;5.45;1.50;;;15.60;99.90;;;;;;5015434;28;20505;-83
2023/06/14 01:50:22;;;;;;;4.22;1.70;;;15.60;99.90;;;;;;5013206;28;20100;-88
2023/06/14 01:53:09;;;;;;;5.40;1.55;;;15.60;99.90;;;;;;5020811;28;20049;-80
2023/06/14 01:55:55;;;;;;;10.38;1.85;;;15.60;99.90;;;;;;5014378;28;20057;-85
2023/06/14 01:58:41;;;;;;;7.55;1.70;;;15.60;99.90;;;;;;5015116;28;20503;-85
2023/06/14 02:01:27;;;;;;;5.45;1.88;;;15.50;99.90;;;;;;5015675;28;20038;-80
2023/06/14 02:04:13;;;;;;;6.22;1.90;;;15.50;99.90;;;;;;5019303;28;20054;-81
2023/06/14 02:07:00;;;;;;;8.25;1.80;;;15.50;99.90;;;;;;5012833;28;20097;-88
2023/06/14 02:09:46;;;;;;;4.65;1.88;;;15.50;99.90;;;;;;5012669;28;20045;-82
2023/06/14 02:12:32;;;;;;;4.22;1.63;;;15.50;99.90;;;;;;5013407;28;20046;-84
2023/06/14 02:15:19;;;;;;;5.68;1.40;;;15.50;99.90;;;;;;5026488;28;20117;-80
2023/06/14 02:18:05;;;;;;;5.38;2.78;;;15.50;99.90;;;;;;5014590;28;20052;-80
2023/06/14 02:20:51;;;;;;;4.80;1.60;;;15.40;99.90;;;;;;5015731;28;20115;-80
2023/06/14 02:23:37;;;;;;;5.30;1.92;;;15.40;99.90;;;;;;5026725;28;20045;-81
2023/06/14 02:26:23;;;;;;;7.03;2.75;;;15.40;99.90;;;;;;5032177;28;20049;-80
2023/06/14 02:29:12;;;;;;;7.50;1.92;;;15.40;99.90;;;;;;5033277;28;20104;-80
2023/06/14 02:31:58;;;;;;;6.03;1.83;;;15.40;99.90;;;;;;4999593;28;20502;-83
2023/06/14 02:34:49;;;;;;;4.65;1.98;;;15.30;99.90;;;;;;5007946;28;20045;-80
2023/06/14 02:37:35;;;;;;;5.97;1.90;;;15.30;99.90;;;;;;5014903;28;20050;-80
2023/06/14 02:40:22;;;;;;;9.82;2.40;;;15.30;99.90;;;;;;5014945;28;20061;-80
2023/06/14 02:43:08;;;;;;;6.03;2.08;;;15.30;99.90;;;;;;5011007;28;20053;-81
2023/06/14 02:45:55;;;;;;;6.70;2.10;;;15.30;99.90;;;;;;5011643;28;20053;-81
2023/06/14 02:48:41;;;;;;;5.30;1.88;;;15.30;99.90;;;;;;5011864;28;20119;-82
2023/06/14 02:51:27;;;;;;;8.88;1.98;;;15.20;99.90;;;;;;5017246;28;20057;-82
2023/06/14 02:54:13;;;;;;;5.00;1.92;;;15.20;99.90;;;;;;5014934;28;20054;-83
2023/06/14 02:56:59;;;;;;;5.68;1.60;;;15.20;99.90;;;;;;5020596;28;20050;-80
2023/06/14 02:59:45;;;;;;;5.65;1.95;;;15.20;99.90;;;;;;5015571;28;20104;-83
2023/06/14 03:02:31;;;;;;;5.32;1.70;;;15.10;99.90;;;;;;5016264;28;20053;-81
2023/06/14 03:05:21;;;;;;;3.80;1.88;;;15.10;99.90;;;;;;5014173;28;20153;-81
2023/06/14 03:08:07;;;;;;;7.78;2.83;;;15.10;99.90;;;;;;5016082;28;20058;-82
2023/06/14 03:10:53;;;;;;;5.65;2.17;;;15.20;99.90;;;;;;5012244;28;20386;-82
2023/06/14 03:13:40;;;;;;;5.28;1.90;;;15.10;99.90;;;;;;5029089;28;20563;-93
2023/06/14 03:16:29;;;;;;;5.35;2.15;;;15.20;99.90;;;;;;5032494;28;20049;-81
2023/06/14 03:19:17;;;;;;;8.63;2.47;;;15.10;99.90;;;;;;5035951;28;20123;-87
2023/06/14 03:22:03;;;;;;;5.30;2.22;;;15.10;99.90;;;;;;5035484;28;20521;-84
2023/06/14 03:24:50;;;;;;;7.18;2.35;;;15.10;99.90;;;;;;5033348;28;20053;-86
2023/06/14 03:27:36;;;;;;;5.22;1.85;;;15.10;99.90;;;;;;5032266;28;20136;-89
2023/06/14 03:30:23;;;;;;;8.27;2.25;;;15.10;99.90;;;;;;5035084;28;20535;-87
2023/06/14 03:33:09;;;;;;;4.45;1.83;;;15.10;99.90;;;;;;5025932;28;20042;-85
2023/06/14 03:35:56;;;;;;;7.05;2.88;;;15.10;99.90;;;;;;5016617;28;20085;-82
2023/06/14 03:38:42;;;;;;;6.03;2.75;;;15.10;99.90;;;;;;5019171;28;20049;-82
2023/06/14 03:41:28;;;;;;;5.55;2.20;;;15.10;99.90;;;;;;5041576;28;20053;-86
2023/06/14 03:44:18;;;;;;;5.78;2.22;;;15.10;99.90;;;;;;5020249;28;20401;-82
2023/06/14 03:47:04;;;;;;;8.10;2.10;;;15.10;99.90;;;;;;5039179;28;20038;-84
2023/06/14 03:49:51;;;;;;;5.03;2.42;;;15.10;99.90;;;;;;5042229;28;20120;-83
2023/06/14 03:52:37;;;;;;;4.75;2.20;;;15.10;99.90;;;;;;5032458;28;20107;-83
2023/06/14 03:55:25;;;;;;;6.40;2.63;;;15.10;99.90;;;;;;5030904;28;20462;-82
2023/06/14 03:58:13;;;;;;;6.00;2.28;;;15.10;99.90;;;;;;5034022;28;20068;-83
2023/06/14 04:00:59;;;;;;;10.63;2.53;;;15.10;99.90;;;;;;5031837;28;20103;-83
2023/06/14 04:03:45;;;;;;;6.75;2.22;;;15.10;99.90;;;;;;5031251;28;20108;-84
2023/06/14 04:06:34;;;;;;;7.18;2.33;;;15.20;99.90;;;;;;5030480;28;20049;-93
2023/06/14 04:09:21;;;;;;;4.63;2.20;;;15.20;99.90;;;;;;5033559;28;20061;-91
2023/06/14 04:12:11;;;;;;;5.38;2.47;;;15.20;99.90;;;;;;5020678;28;20049;-84
2023/06/14 04:14:57;;;;;;;5.43;2.28;;;15.20;99.90;;;;;;5017270;28;20065;-81
2023/06/14 04:17:43;;;;;;;11.43;2.60;;;15.20;99.90;;;;;;5034748;28;20128;-86
2023/06/14 04:20:30;;;;;;;8.40;3.15;;;15.20;99.90;;;;;;5013033;28;20095;-86
2023/06/14 04:23:21;;;;;;;7.47;2.35;;;15.20;99.90;;;;;;5013232;28;20088;-90
2023/06/14 04:26:10;;;;;;;7.18;2.30;;;15.20;99.90;;;;;;5030077;28;20436;-82
2023/06/14 04:29:01;;;;;;;6.22;2.17;;;15.20;99.90;;;;;;5018878;28;20053;-92
2023/06/14 04:31:47;;;;;;;5.82;2.30;;;15.30;99.90;;;;;;5045948;28;20050;-87
2023/06/14 04:34:34;;;;;;;7.10;2.22;;;15.30;99.90;;;;;;5011919;28;20531;-85
2023/06/14 04:37:24;;;;;;;6.63;2.20;;;15.30;99.90;;;;;;5017371;28;20072;-81
2023/06/14 04:40:10;;;;;;;4.78;2.28;;;15.30;99.90;;;;;;5030043;28;20053;-83
2023/06/14 04:42:57;;;;;;;5.47;2.28;;;15.30;99.90;;;;;;5012253;28;20061;-84
2023/06/14 04:45:46;;;;;;;5.72;2.08;;;15.40;99.90;;;;;;5017402;28;20586;-89
2023/06/14 04:48:32;;;;;;;7.93;3.10;;;15.40;99.90;;;;;;5013232;28;20440;-90
2023/06/14 04:51:21;;;;;;;7.65;3.22;;;15.40;99.90;;;;;;5037138;28;20049;-82
2023/06/14 04:54:10;;;;;;;9.18;2.40;;;15.50;99.90;;;;;;5031494;28;20049;-86
2023/06/14 04:56:56;;;;;;;8.63;3.40;;;15.60;99.90;;;;;;5035555;28;20083;-88
2023/06/14 04:59:43;;;;;;;7.60;2.40;;;15.70;99.90;;;;;;5032917;28;20473;-84
2023/06/14 05:02:30;;;;;;;6.63;2.25;;;15.70;99.90;;;;;;5031467;28;20054;-86
2023/06/14 05:05:17;;;;;;;6.47;2.95;;;15.80;99.90;;;;;;5031494;28;20506;-91
2023/06/14 05:08:03;;;;;;;5.15;2.72;;;15.90;99.90;;;;;;5015084;28;20455;-82
2023/06/14 05:10:50;;;;;;;9.10;2.25;;;15.90;99.90;;;;;;5016730;28;20443;-83
2023/06/14 05:13:36;;;;;;;6.65;2.72;;;16.00;99.90;;;;;;5030566;28;20059;-81
2023/06/14 05:16:22;;;;;;;8.50;2.88;;;16.10;99.90;;;;;;5036055;28;20050;-81
2023/06/14 05:19:10;;;;;;;7.43;2.88;;;16.20;99.90;;;;;;5036599;28;20057;-87
2023/06/14 05:21:56;;;;;;;6.60;2.88;;;16.30;99.90;;;;;;5040142;28;20056;-82
2023/06/14 05:24:42;;;;;;;4.97;2.42;;;16.40;99.90;;;;;;5031328;28;20049;-82
2023/06/14 05:27:28;;;;;;;6.75;2.97;;;16.40;99.90;;;;;;5029924;28;20582;-81
2023/06/14 05:30:15;;;;;;;9.07;2.97;;;16.50;99.90;;;;;;5028854;28;20475;-84
2023/06/14 05:33:01;;;;;;;6.97;2.50;;;16.60;99.90;;;;;;5035170;28;20053;-83
2023/06/14 05:35:47;;;;;;;7.60;2.75;;;16.70;99.90;;;;;;5029855;28;20096;-85
2023/06/14 05:38:34;;;;;;;7.00;2.53;;;16.80;99.90;;;;;;5030168;28;20056;-84
2023/06/14 05:41:20;;;;;;;5.60;2.70;;;16.90;99.90;;;;;;5030338;28;20113;-82
2023/06/14 05:44:08;;;;;;;5.57;2.40;;;17.00;99.90;;;;;;5029190;28;20046;-81
2023/06/14 05:46:54;;;;;;;9.95;4.63;;;17.10;99.90;;;;;;5037961;28;20045;-82
2023/06/14 05:49:40;;;;;;;7.53;2.75;;;17.30;99.90;;;;;;5030948;28;20364;-85
2023/06/14 05:52:27;;;;;;;6.20;2.60;;;17.40;99.90;;;;;;5032109;28;20416;-82
2023/06/14 05:55:15;;;;;;;4.75;2.33;;;17.60;99.90;;;;;;5035290;28;20112;-83
2023/06/14 05:58:02;;;;;;;5.88;2.53;;;17.70;99.90;;;;;;5035978;28;20058;-87
2023/06/14 06:00:48;;;;;;;7.30;2.40;;;17.80;99.90;;;;;;5037777;28;20516;-87
2023/06/14 06:03:34;;;;;;;7.43;2.50;;;17.80;99.90;;;;;;5016129;28;20107;-87
2023/06/14 06:06:20;;;;;;;10.45;2.63;;;18.00;99.90;;;;;;5037088;28;20049;-82
2023/06/14 06:09:06;;;;;;;6.40;2.67;;;18.10;99.90;;;;;;5037608;28;20056;-86
2023/06/14 06:11:53;;;;;;;9.07;2.78;;;18.10;99.90;;;;;;5015000;28;20515;-82
2023/06/14 06:14:39;;;;;;;6.35;2.80;;;18.30;99.90;;;;;;5033832;28;20045;-83
2023/06/14 06:17:26;;;;;;;6.55;2.63;;;18.50;99.90;;;;;;5034831;28;20049;-82
2023/06/14 06:20:15;;;;;;;7.90;3.20;;;18.60;99.90;;;;;;5034052;28;20041;-84
2023/06/14 06:23:02;;;;;;;6.93;2.42;;;18.80;99.90;;;;;;5033733;28;20057;-84
2023/06/14 06:25:48;;;;;;;7.05;2.25;;;18.90;99.90;;;;;;5039242;28;20088;-86
2023/06/14 06:28:34;;;;;;;7.57;2.50;;;19.10;99.90;;;;;;5039561;28;20133;-84
2023/06/14 06:31:22;;;;;;;12.88;2.70;;;19.30;99.90;;;;;;5021017;28;20060;-85
2023/06/14 06:34:08;;;;;;;8.60;3.03;;;19.40;99.40;;;;;;5017787;28;20046;-82
2023/06/14 06:36:55;;;;;;;7.65;2.20;;;19.60;99.20;;;;;;5017765;28;20485;-87
2023/06/14 06:39:41;;;;;;;6.20;2.45;;;19.80;99.00;;;;;;5034280;28;20136;-84
2023/06/14 06:42:27;;;;;;;6.53;2.35;;;19.90;98.20;;;;;;5014072;28;20059;-82
2023/06/14 06:45:13;;;;;;;9.93;2.88;;;20.00;98.00;;;;;;5034644;28;20060;-86
2023/06/14 06:48:00;;;;;;;10.65;2.65;;;20.10;97.60;;;;;;5036824;28;20044;-84
2023/06/14 06:50:46;;;;;;;11.20;3.22;;;20.30;97.40;;;;;;5033477;28;20051;-87
2023/06/14 06:53:41;;;;;;;;;;;20.40;97.20;;;;;;5034876;28;20045;-84
2023/06/14 06:56:28;;;;;;;8.02;2.55;;;20.60;97.20;;;;;;5032683;28;19970;-82
2023/06/14 06:59:16;;;;;;;5.85;2.33;;;20.70;97.00;;;;;;5038059;28;20049;-82
2023/06/14 07:02:06;;;;;;;6.05;2.00;;;20.70;96.20;;;;;;5020022;28;20053;-90
2023/06/14 07:04:52;;;;;;;4.20;1.98;;;20.80;95.60;;;;;;5014656;28;20056;-85
2023/06/14 07:07:38;;;;;;;7.53;2.80;;;21.00;95.60;;;;;;5031845;28;20050;-89
2023/06/14 07:10:24;;;;;;;4.60;2.30;;;21.10;95.40;;;;;;5035710;28;20521;-83
2023/06/14 07:13:11;;;;;;;11.85;2.78;;;21.40;95.00;;;;;;5032314;28;20126;-82
2023/06/14 07:15:59;;;;;;;7.13;2.35;;;21.50;94.50;;;;;;5031665;28;20122;-82
2023/06/14 07:18:45;;;;;;;6.60;2.05;;;21.60;93.80;;;;;;5033284;28;20045;-81
2023/06/14 07:21:31;;;;;;;11.90;2.00;;;21.70;93.30;;;;;;5030834;28;20059;-81
2023/06/14 07:24:17;;;;;;;5.15;1.98;;;21.70;93.30;;;;;;5002555;28;20053;-83
2023/06/14 07:27:04;;;;;;;6.47;1.65;;;21.90;92.90;;;;;;5012392;28;20060;-81
2023/06/14 07:29:50;;;;;;;5.55;1.83;;;22.10;92.30;;;;;;5039041;28;20050;-82
2023/06/14 07:32:36;;;;;;;6.78;2.30;;;22.20;91.90;;;;;;5016923;28;20052;-82
2023/06/14 07:35:23;;;;;;;6.20;2.00;;;22.40;91.70;;;;;;5017024;28;20061;-82
2023/06/14 07:38:09;;;;;;;6.57;1.95;;;22.40;91.00;;;;;;5030744;28;20145;-82
2023/06/14 07:40:55;;;;;;;7.88;2.78;;;22.60;91.30;;;;;;5030430;28;20567;-82
2023/06/14 07:43:41;;;;;;;7.25;2.20;;;22.80;91.30;;;;;;5031597;28;20049;-87
2023/06/14 07:46:27;;;;;;;6.32;2.20;;;22.90;90.80;;;;;;5032160;28;20049;-82
2023/06/14 07:49:13;;;;;;;8.18;1.88;;;23.00;90.40;;;;;;5034213;28;20091;-81
2023/06/14 07:51:59;;;;;;;6.60;2.80;;;23.10;90.10;;;;;;5018369;28;20045;-85
2023/06/14 07:54:45;;;;;;;6.57;2.92;;;23.30;90.10;;;;;;5030734;28;20049;-82
2023/06/14 07:57:31;;;;;;;5.07;2.13;;;23.40;89.30;;;;;;5032639;28;20112;-84
2023/06/14 08:00:19;;;;;;;6.70;1.92;;;23.50;88.50;;;;;;5031948;28;20045;-82
2023/06/14 08:03:05;;;;;;;9.30;1.95;;;23.70;89.00;;;;;;5035897;28;20085;-81
2023/06/14 08:05:51;;;;;;;6.30;2.10;;;23.80;86.60;;;;;;5037653;28;20049;-82
2023/06/14 08:08:37;;;;;;;7.25;2.33;;;24.00;86.60;;;;;;5020068;28;20486;-81
2023/06/14 08:11:24;;;;;;;4.40;1.98;;;24.20;86.00;;;;;;5019896;28;20046;-81
2023/06/14 08:14:10;;;;;;;6.35;1.80;;;24.40;84.80;;;;;;5035550;28;20053;-81
2023/06/14 08:16:56;;;;;;;9.05;2.38;;;24.50;83.90;;;;;;5013186;28;20531;-81
2023/06/14 08:19:42;;;;;;;8.27;1.80;;;24.70;83.40;;;;;;5030143;28;20115;-84
2023/06/14 08:22:32;;;;;;;4.65;1.88;;;24.70;83.70;;;;;;5014820;28;20045;-80
2023/06/14 08:25:18;;;;;;;7.93;1.83;;;24.70;82.20;;;;;;5029812;28;20497;-80
2023/06/14 08:28:05;;;;;;;4.90;1.90;;;24.90;81.40;;;;;;5029734;28;20056;-82
2023/06/14 08:30:51;;;;;;;6.28;1.98;;;25.10;81.90;;;;;;5014402;28;20076;-80
2023/06/14 08:33:37;;;;;;;9.57;2.80;;;25.10;80.60;;;;;;5034166;28;20515;-87
2023/06/14 08:36:23;;;;;;;8.45;2.17;;;25.30;81.60;;;;;;5030335;28;20045;-83
2023/06/14 08:39:09;;;;;;;5.50;2.00;;;25.50;81.00;;;;;;5029739;28;20084;-83
2023/06/14 08:41:57;;;;;;;5.03;1.80;;;25.60;80.40;;;;;;5037110;28;20456;-86
2023/06/14 08:44:43;;;;;;;6.95;1.92;;;25.60;78.90;;;;;;5030485;28;20128;-83
2023/06/14 08:47:36;;;;;;;5.57;1.80;;;25.60;78.10;;;;;;5011552;28;20456;-87
2023/06/14 08:50:23;;;;;;;4.13;1.67;;;25.60;77.50;;;;;;5029947;28;20053;-86
2023/06/14 08:53:19;;;;;;;7.13;1.55;;;25.70;78.00;;;;;;5031114;28;20057;-84
2023/06/14 08:56:07;;;;;;;5.10;1.67;;;25.70;77.50;;;;;;5032152;28;20057;-79
2023/06/14 08:58:54;;;;;;;6.65;1.80;;;26.00;78.90;;;;;;5032156;28;20107;-83
2023/06/14 09:01:40;;;;;;;5.35;1.73;;;26.10;77.70;;;;;;5031465;28;20894;-83
2023/06/14 09:04:29;;;;;;;6.13;1.50;;;26.20;76.40;;;;;;5034949;28;20157;-82
2023/06/14 09:07:16;;;;;;;4.95;1.60;;;26.30;76.60;;;;;;5036865;28;20060;-82
2023/06/14 09:10:10;;;;;;;5.32;1.80;;;26.50;76.70;;;;;;5014655;28;20525;-81
2023/06/14 09:12:56;;;;;;;6.38;2.10;;;26.60;76.10;;;;;;5030894;28;20053;-80
2023/06/14 09:15:42;;;;;;;4.97;1.77;;;26.70;75.20;;;;;;5030872;28;20448;-83
2023/06/14 09:18:40;;;;;;;4.22;1.30;;;26.70;75.90;;;;;;5030813;28;20448;-81
2023/06/14 09:21:27;;;;;;;5.32;1.52;;;26.70;74.70;;;;;;5029644;28;20056;-88
2023/06/14 09:24:14;;;;;;;8.90;2.00;;;26.90;74.80;;;;;;5032984;28;20046;-85
2023/06/14 09:27:00;;;;;;;4.70;1.50;;;27.10;74.60;;;;;;5012846;28;20243;-88
2023/06/14 09:29:46;;;;;;;5.05;1.70;;;27.20;74.30;;;;;;5030468;28;20141;-84
2023/06/14 09:32:40;;;;;;;5.25;1.52;;;27.40;73.50;;;;;;5015690;28;20061;-80
2023/06/14 09:35:28;;;;;;;10.90;1.97;;;27.60;73.00;;;;;;5034605;28;20041;-84
2023/06/14 09:38:14;;;;;;;4.35;1.73;;;27.80;73.80;;;;;;5015982;28;20312;-82
2023/06/14 09:41:03;;;;;;;4.45;2.00;;;28.00;74.30;;;;;;5033344;28;20042;-87
2023/06/14 09:43:50;;;;;;;5.00;2.10;;;28.00;73.80;;;;;;5018636;28;20071;-86
2023/06/14 09:46:37;;;;;;;9.00;2.55;;;28.20;75.90;;;;;;5012657;28;20049;-88
2023/06/14 09:49:25;;;;;;;7.35;2.83;;;28.20;77.10;;;;;;5038070;28;20054;-81
2023/06/14 09:52:18;;;;;;;5.20;2.28;;;28.30;76.90;;;;;;5033038;28;20049;-86
2023/06/14 09:55:11;;;;;;;7.63;2.22;;;28.40;77.60;;;;;;5033958;28;20049;-77
2023/06/14 09:58:00;;;;;;;6.07;2.30;;;28.30;77.20;;;;;;5033050;28;20081;-79
2023/06/14 10:00:50;;;;;;;7.65;2.00;;;28.30;78.00;;;;;;5034715;28;20050;-85
2023/06/14 10:03:38;;;;;;;10.88;2.35;;;28.00;77.50;;;;;;5018138;28;20104;-83
2023/06/14 10:06:26;;;;;;;8.57;2.30;;;28.10;77.50;;;;;;5033260;28;20457;-86
2023/06/14 10:09:14;;;;;;;7.00;1.90;;;28.10;77.30;;;;;;5019470;28;20095;-76
2023/06/14 10:12:01;;;;;;;7.68;2.05;;;28.20;76.70;;;;;;5033216;28;20410;-85
2023/06/14 10:14:54;;;;;;;5.47;2.10;;;28.30;76.50;;;;;;5034175;28;20053;-81
2023/06/14 10:17:56;;;;;;;7.72;2.17;;;28.50;77.40;;;;;;5042147;28;20072;-80
2023/06/14 10:21:09;;;;;;;6.20;2.05;;;28.80;76.80;;;;;;5036154;28;20061;-83
2023/06/14 10:24:00;;;;;;;5.53;1.98;;;29.10;76.10;;;;;;5031941;28;20045;-87
2023/06/14 10:26:56;;;;;;;5.03;2.63;;;29.40;75.80;;;;;;5014233;28;20054;-86
2023/06/14 10:29:57;;;;;;;6.78;1.80;;;29.40;75.10;;;;;;5032920;28;20055;-80
2023/06/14 10:33:07;;;;;;;11.77;1.83;;;29.30;73.20;;;;;;5031589;28;20554;-84
2023/06/14 10:36:08;;;;;;;11.75;2.55;;;29.30;74.50;;;;;;5032801;28;20080;-82
2023/06/14 10:39:08;;;;;;;3.80;1.73;;;29.50;74.70;;;;;;5038850;28;20052;-78
2023/06/14 10:41:56;;;;;;;10.35;2.53;;;29.50;75.70;;;;;;5031100;28;20053;-80
2023/06/14 10:44:55;;;;;;;4.20;2.35;;;29.50;74.50;;;;;;5031927;28;20061;-77
2023/06/14 10:47:41;;;;;;;8.90;2.25;;;29.60;74.10;;;;;;5030267;28;20412;-78
2023/06/14 10:50:33;;;;;;;5.90;1.95;;;29.80;72.90;;;;;;5013403;28;20053;-80
2023/06/14 10:53:23;;;;;;;6.53;1.80;;;29.60;72.30;;;;;;5013797;28;20053;-80
2023/06/14 10:56:24;;;;;;;6.18;2.00;;;29.70;72.30;;;;;;5013463;28;20049;-89
2023/06/14 10:59:10;;;;;;;5.10;1.73;;;29.60;72.20;;;;;;5034187;28;20497;-84
2023/06/14 11:02:15;;;;;;;8.45;2.28;;;29.60;72.40;;;;;;5037049;28;20072;-78
2023/06/14 11:05:05;;;;;;;4.63;2.10;;;29.90;71.80;;;;;;5032446;28;20057;-79
2023/06/14 11:08:32;;;;;;;4.22;2.00;;;29.80;71.40;;;;;;5031980;28;20042;-82
2023/06/14 11:11:22;;;;;;;7.28;1.80;;;30.00;71.70;;;;;;5013651;28;20053;-78
2023/06/14 11:14:09;;;;;;;4.22;1.45;;;30.00;71.90;;;;;;5031833;28;20096;-80
2023/06/14 11:16:55;;;;;;;5.57;1.83;;;30.20;70.80;;;;;;5030957;28;20050;-80
2023/06/14 11:19:42;;;;;;;6.55;2.05;;;30.20;71.00;;;;;;5037481;28;20567;-85
2023/06/14 11:22:28;;;;;;;5.65;2.10;;;30.30;70.40;;;;;;5036161;28;20064;-84
2023/06/14 11:25:14;;;;;;;5.70;2.95;;;30.40;70.50;;;;;;5034877;28;20053;-84
2023/06/14 11:28:00;;;;;;;11.32;3.33;;;30.60;73.10;;;;;;5030275;28;20485;-86
2023/06/14 11:30:47;;;;;;;9.70;2.85;;;30.60;74.50;;;;;;5032876;28;20052;-87
2023/06/14 11:33:34;;;;;;;12.35;3.00;;;30.40;75.40;;;;;;5014275;28;20089;-80
2023/06/14 11:36:20;;;;;;;8.57;2.65;;;30.40;76.20;;;;;;5030790;28;20045;-84
2023/06/14 11:39:08;;;;;;;7.47;2.53;;;30.60;75.40;;;;;;5032212;28;20108;-87
2023/06/14 11:41:55;;;;;;;11.85;3.30;;;30.40;74.80;;;;;;5033148;28;20048;-87
2023/06/14 11:44:41;;;;;;;11.55;2.75;;;30.40;75.40;;;;;;5034371;28;20054;-78
2023/06/14 11:47:34;;;;;;;11.15;3.78;;;30.20;75.60;;;;;;5030953;28;20443;-78
2023/06/14 11:50:20;;;;;;;12.93;4.05;;;30.30;76.10;;;;;;5013126;28;20119;-79
2023/06/14 11:53:07;;;;;;;7.82;3.25;;;30.40;76.50;;;;;;5030592;28;20393;-81
2023/06/14 11:55:53;;;;;;;11.07;2.85;;;30.30;76.10;;;;;;5031578;28;20050;-79
2023/06/14 11:58:40;;;;;;;8.45;2.80;;;30.40;76.10;;;;;;5002851;28;20102;-83
2023/06/14 12:01:26;;;;;;;9.63;2.80;;;30.60;76.00;;;;;;5039031;28;20088;-80
2023/06/14 12:04:12;;;;;;;6.28;2.75;;;30.70;76.90;;;;;;5030121;28;20136;-83
2023/06/14 12:07:11;;;;;;;10.93;3.03;;;30.50;75.90;;;;;;5030571;28;20155;-79
2023/06/14 12:09:56;;;;;;;13.70;2.85;;;30.80;74.70;;;;;;5030338;28;20057;-83
2023/06/14 12:12:43;;;;;;;12.73;3.45;;;30.80;75.60;;;;;;5029048;28;20412;-81
2023/06/14 12:15:29;;;;;;;9.48;2.60;;;31.00;75.60;;;;;;5020422;28;20064;-86
2023/06/14 12:18:15;;;;;;;12.48;2.58;;;31.10;74.80;;;;;;5038270;28;20053;-77
2023/06/14 12:21:04;;;;;;;9.77;2.70;;;31.40;74.40;;;;;;5030344;28;20524;-85
2023/06/14 12:23:51;;;;;;;11.38;2.70;;;31.50;73.70;;;;;;5012431;28;20056;-78
2023/06/14 12:26:41;;;;;;;10.10;2.50;;;31.50;73.00;;;;;;5030573;28;20057;-78
2023/06/14 12:29:27;;;;;;;7.88;2.42;;;31.70;72.90;;;;;;5017313;28;20056;-81
2023/06/14 12:32:13;;;;;;;9.13;2.20;;;31.80;72.60;;;;;;5029617;28;20053;-87
2023/06/14 12:34:59;;;;;;;8.65;2.15;;;31.80;71.50;;;;;;5033982;28;20053;-78
2023/06/14 12:37:46;;;;;;;10.00;3.28;;;32.00;71.80;;;;;;5028893;28;20050;-78
2023/06/14 12:40:32;;;;;;;11.50;2.72;;;32.10;71.10;;;;;;5030110;28;20602;-79
2023/06/14 12:43:18;;;;;;;8.88;2.33;;;32.10;71.40;;;;;;5015049;28;20057;-82
2023/06/14 12:46:05;;;;;;;7.18;2.65;;;31.90;71.50;;;;;;5030552;28;20497;-82
2023/06/14 12:48:51;;;;;;;12.57;2.70;;;32.10;70.50;;;;;;5031710;28;20049;-81
2023/06/14 12:51:40;;;;;;;13.60;2.92;;;31.80;69.80;;;;;;5018367;28;20053;-82
2023/06/14 12:54:27;;;;;;;12.13;2.70;;;32.20;69.60;;;;;;5029212;28;20560;-79
2023/06/14 12:57:13;;;;;;;11.32;3.22;;;32.10;69.70;;;;;;5030857;28;20204;-81
2023/06/14 13:00:00;;;;;;;16.45;2.95;;;32.00;69.60;;;;;;5030023;28;20505;-78
2023/06/14 13:02:46;;;;;;;8.93;2.65;;;31.80;68.70;;;;;;5030606;28;20766;-82
2023/06/14 13:05:33;;;;;;;12.43;2.30;;;31.70;69.40;;;;;;5013243;28;20065;-84
2023/06/14 13:08:19;;;;;;;9.77;2.30;;;32.10;69.40;;;;;;5035025;28;20056;-85
2023/06/14 13:11:05;;;;;;;9.68;2.20;;;32.40;68.30;;;;;;5034427;28;20068;-84
2023/06/14 13:13:51;;;;;;;7.90;2.08;;;32.10;67.80;;;;;;5033728;28;20060;-89
2023/06/14 13:16:37;;;;;;;11.07;2.40;;;32.40;68.00;;;;;;5022483;28;20049;-77
2023/06/14 13:19:23;;;;;;;8.73;1.95;;;32.80;67.80;;;;;;5034215;28;20080;-77
2023/06/14 13:22:10;;;;;;;6.10;1.90;;;32.50;67.20;;;;;;5035153;28;20072;-78
2023/06/14 13:24:56;;;;;;;7.35;2.15;;;32.50;67.20;;;;;;5033978;28;20571;-79
2023/06/14 13:27:42;;;;;;;18.73;3.28;;;32.70;66.60;;;;;;5034187;28;20067;-79
2023/06/14 13:30:28;;;;;;;9.27;2.80;;;32.40;66.60;;;;;;5036945;28;20154;-83
2023/06/14 13:33:14;;;;;;;9.18;2.30;;;32.50;67.00;;;;;;5035633;28;20092;-81
2023/06/14 13:36:00;;;;;;;7.22;2.30;;;32.40;66.70;;;;;;5040515;28;20049;-78
2023/06/14 13:38:46;;;;;;;9.07;2.20;;;32.50;66.40;;;;;;5033840;28;20103;-81
2023/06/14 13:41:34;;;;;;;7.95;2.28;;;32.30;65.70;;;;;;5035697;28;20115;-83
2023/06/14 13:44:21;;;;;;;9.05;2.33;;;32.30;65.90;;;;;;5039021;28;20056;-77
2023/06/14 13:47:07;;;;;;;10.07;2.53;;;32.40;66.20;;;;;;5041398;28;20141;-82
2023/06/14 13:49:53;;;;;;;7.85;2.42;;;32.70;66.10;;;;;;5020328;28;20124;-81
2023/06/14 13:52:40;;;;;;;14.50;2.33;;;33.10;65.00;;;;;;5016247;28;20088;-79
2023/06/14 13:55:26;;;;;;;12.15;2.58;;;32.90;64.40;;;;;;5036367;28;20084;-82
2023/06/14 13:58:12;;;;;;;16.30;3.00;;;33.10;64.30;;;;;;5018893;28;20069;-77
2023/06/14 14:00:59;;;;;;;6.97;2.10;;;33.40;64.60;;;;;;5039918;28;20049;-77
2023/06/14 14:03:49;;;;;;;6.72;2.38;;;33.50;63.50;;;;;;5038537;28;20128;-78
2023/06/14 14:06:35;;;;;;;12.02;2.85;;;33.50;62.70;;;;;;5032769;28;20041;-77
2023/06/14 14:09:21;;;;;;;9.80;2.47;;;33.70;62.70;;;;;;5032603;28;20045;-78
2023/06/14 14:12:07;;;;;;;10.95;2.10;;;33.50;62.20;;;;;;5033655;28;20049;-81
2023/06/14 14:14:54;;;;;;;10.80;2.38;;;33.80;62.00;;;;;;5038145;28;20118;-78
2023/06/14 14:17:40;;;;;;;8.57;2.45;;;34.20;61.80;;;;;;5036151;28;20050;-80
2023/06/14 14:20:26;;;;;;;12.57;2.58;;;34.10;61.10;;;;;;5033376;28;20588;-78
2023/06/14 14:23:12;;;;;;;6.00;2.15;;;34.20;61.40;;;;;;5033580;28;20057;-79
2023/06/14 14:26:00;;;;;;;7.82;2.10;;;34.30;61.00;;;;;;5033745;28;20092;-78
2023/06/14 14:28:46;;;;;;;6.28;1.88;;;34.40;60.20;;;;;;5034618;28;20064;-80
2023/06/14 14:31:32;;;;;;;24.80;3.33;;;34.30;60.10;;;;;;5031982;28;20096;-82